Time;durP1;ratioP1;P1;durP2;ratioP2;P2;SDS_P1;SDS_P2;PMS_P1;PMS_P2;Temp;Humidity;BMP_temperature;BMP_pressure;BME280_temperature;BME280_humidity;BME280_pressure;Samples;Min_cycle;Max_cycle;Signal;HPM_P1;HPM_P2
2020/12/21 00:02:35;;;;;;;31.92;18.23;;;;;;;0.27;100.00;96844.50;1046193;28;20407;-72
2020/12/21 00:03:06;;;;;;;35.85;20.80;;;;;;;0.24;100.00;96845.50;1037575;28;20087;-72
2020/12/21 00:03:37;;;;;;;31.05;18.75;;;;;;;0.28;100.00;96849.63;1028457;28;20027;-72
2020/12/21 00:04:08;;;;;;;37.80;20.42;;;;;;;0.25;100.00;96846.38;1024642;29;20039;-72
2020/12/21 00:04:38;;;;;;;32.25;19.75;;;;;;;0.21;100.00;96834.38;1026674;29;20019;-72
2020/12/21 00:05:09;;;;;;;34.47;19.13;;;;;;;0.31;100.00;96841.59;1034464;28;20069;-72
2020/12/21 00:05:40;;;;;;;35.38;20.02;;;;;;;0.26;100.00;96848.88;1030274;28;20023;-72
2020/12/21 00:06:12;;;;;;;32.35;19.80;;;;;;;0.25;100.00;96835.91;1028225;28;20121;-72
2020/12/21 00:06:43;;;;;;;36.30;19.52;;;;;;;0.28;100.00;96843.53;1029895;28;20042;-72
2020/12/21 00:07:14;;;;;;;33.92;18.80;;;;;;;0.22;100.00;96833.47;1030465;28;20019;-71
2020/12/21 00:07:44;;;;;;;28.88;18.10;;;;;;;0.33;100.00;96838.88;1030576;28;20011;-72
2020/12/21 00:08:15;;;;;;;32.63;19.45;;;;;;;0.37;100.00;96843.03;1034614;28;20023;-72
2020/12/21 00:08:46;;;;;;;29.92;17.92;;;;;;;0.45;100.00;96845.16;1030645;28;20022;-71
2020/12/21 00:09:16;;;;;;;29.95;18.60;;;;;;;0.42;100.00;96845.34;1026340;29;20031;-72
2020/12/21 00:09:48;;;;;;;30.38;18.50;;;;;;;0.31;100.00;96848.59;1034863;28;20485;-71
2020/12/21 00:10:18;;;;;;;31.02;19.02;;;;;;;0.30;100.00;96845.16;1030499;28;20027;-71
2020/12/21 00:10:50;;;;;;;31.60;18.55;;;;;;;0.30;100.00;96847.75;1030472;28;20487;-72
2020/12/21 00:11:21;;;;;;;32.97;19.50;;;;;;;0.23;100.00;96848.19;1026345;29;20015;-71
2020/12/21 00:11:52;;;;;;;29.67;18.08;;;;;;;0.26;100.00;96853.25;1026958;29;20019;-71
2020/12/21 00:12:22;;;;;;;32.97;18.77;;;;;;;0.15;100.00;96843.44;1034127;28;20390;-72
2020/12/21 00:12:53;;;;;;;31.83;18.38;;;;;;;0.20;100.00;96849.22;1032512;28;20026;-72
2020/12/21 00:13:27;;;;;;;32.83;19.60;;;;;;;0.28;100.00;96851.38;1024467;29;20024;-73
2020/12/21 00:13:58;;;;;;;32.53;19.23;;;;;;;0.30;100.00;96842.53;1024245;29;20448;-72
2020/12/21 00:14:29;;;;;;;30.98;18.58;;;;;;;0.42;100.00;96853.19;1020367;29;20024;-72
2020/12/21 00:15:00;;;;;;;28.65;17.83;;;;;;;0.44;100.00;96851.34;1024333;29;20023;-72
2020/12/21 00:15:31;;;;;;;28.08;17.20;;;;;;;0.35;100.00;96852.72;1024121;29;20503;-72
2020/12/21 00:16:02;;;;;;;26.13;17.20;;;;;;;0.32;100.00;96855.50;1024448;29;20027;-72
2020/12/21 00:16:45;;;;;;;28.75;18.48;;;;;;;0.23;100.00;96853.41;1028327;28;20031;-72
2020/12/21 00:17:16;;;;;;;26.30;16.45;;;;;;;0.24;100.00;96855.13;1031911;28;20023;-72
2020/12/21 00:17:47;;;;;;;30.85;18.50;;;;;;;0.23;100.00;96856.03;1023999;29;20345;-72
2020/12/21 00:18:18;;;;;;;32.40;17.85;;;;;;;0.33;100.00;96860.66;1024295;29;20014;-72
2020/12/21 00:18:48;;;;;;;29.80;18.33;;;;;;;0.34;100.00;96856.25;1028121;28;20018;-72
2020/12/21 00:19:20;;;;;;;29.77;18.10;;;;;;;0.28;100.00;96854.00;1032356;28;20093;-72
2020/12/21 00:19:51;;;;;;;30.33;18.52;;;;;;;0.33;100.00;96865.88;1023948;29;20019;-73
2020/12/21 00:20:21;;;;;;;30.58;19.05;;;;;;;0.31;100.00;96864.28;1028238;28;20027;-73
2020/12/21 00:20:52;;;;;;;31.30;19.30;;;;;;;0.25;100.00;96868.09;1024132;29;20429;-73
2020/12/21 00:21:23;;;;;;;32.35;19.38;;;;;;;0.27;100.00;96857.56;1028158;28;20098;-73
2020/12/21 00:21:54;;;;;;;31.85;19.35;;;;;;;0.29;100.00;96863.53;1032031;28;20014;-73
2020/12/21 00:22:24;;;;;;;31.60;18.95;;;;;;;0.30;100.00;96867.84;1024043;29;20379;-73
2020/12/21 00:22:55;;;;;;;30.50;18.88;;;;;;;0.25;100.00;96856.81;1028098;28;20534;-72
2020/12/21 00:23:26;;;;;;;29.52;18.55;;;;;;;0.28;100.00;96867.06;1032221;28;20490;-73
2020/12/21 00:24:00;;;;;;;33.08;19.55;;;;;;;0.32;100.00;96860.75;1028118;28;20022;-73
2020/12/21 00:24:30;;;;;;;31.30;18.52;;;;;;;0.32;100.00;96858.13;1036218;28;20022;-73
2020/12/21 00:25:01;;;;;;;28.83;17.88;;;;;;;0.37;100.00;96866.53;1032103;28;20023;-72
2020/12/21 00:25:32;;;;;;;31.83;18.08;;;;;;;0.25;100.00;96862.88;1028181;28;20019;-72
2020/12/21 00:26:02;;;;;;;32.30;18.38;;;;;;;0.26;100.00;96864.56;1024105;29;20008;-72
2020/12/21 00:26:33;;;;;;;31.52;18.67;;;;;;;0.25;100.00;96868.09;1024261;28;20031;-72
2020/12/21 00:27:04;;;;;;;33.28;19.25;;;;;;;0.29;100.00;96868.75;1032180;28;20011;-72
2020/12/21 00:27:35;;;;;;;31.65;17.90;;;;;;;0.33;100.00;96867.63;1032232;28;20025;-72
2020/12/21 00:28:05;;;;;;;31.65;19.00;;;;;;;0.32;100.00;96868.56;1028013;28;20018;-73
2020/12/21 00:28:36;;;;;;;30.98;19.20;;;;;;;0.32;100.00;96873.81;1028281;28;20093;-72
2020/12/21 00:29:08;;;;;;;32.20;18.95;;;;;;;0.18;100.00;96849.31;1028138;28;20029;-72
2020/12/21 00:29:39;;;;;;;33.10;19.33;;;;;;;0.31;100.00;96870.31;1028151;28;20062;-72
2020/12/21 00:30:10;;;;;;;31.38;19.02;;;;;;;0.33;100.00;96859.78;1023973;29;20023;-72
2020/12/21 00:30:40;;;;;;;29.38;18.10;;;;;;;0.23;100.00;96861.25;1024224;29;20042;-72
2020/12/21 00:31:11;;;;;;;31.67;18.48;;;;;;;0.28;100.00;96861.81;1024197;29;20023;-72
2020/12/21 00:31:43;;;;;;;29.90;17.95;;;;;;;0.02;100.00;96825.03;1028281;28;20428;-72
2020/12/21 00:32:13;;;;;;;33.35;20.27;;;;;;;0.30;100.00;96863.44;1028045;28;20015;-72
2020/12/21 00:32:44;;;;;;;30.15;18.63;;;;;;;0.30;100.00;96854.78;1028130;28;20010;-72
2020/12/21 00:33:15;;;;;;;34.72;20.30;;;;;;;0.32;100.00;96864.19;1028058;28;20022;-72
2020/12/21 00:33:46;;;;;;;32.97;20.23;;;;;;;0.22;100.00;96851.75;1032286;28;20022;-72
2020/12/21 00:34:17;;;;;;;32.72;18.75;;;;;;;0.19;100.00;96842.31;1028063;28;20019;-72
2020/12/21 00:34:48;;;;;;;33.20;19.13;;;;;;;0.34;100.00;96858.88;1032253;28;20122;-72
2020/12/21 00:35:19;;;;;;;34.33;19.98;;;;;;;0.37;100.00;96856.09;1028143;28;20530;-72
2020/12/21 00:35:50;;;;;;;34.40;19.92;;;;;;;0.34;100.00;96857.09;1032274;28;20025;-72
2020/12/21 00:36:21;;;;;;;31.98;19.63;;;;;;;0.37;100.00;96849.06;1028128;28;20056;-72
2020/12/21 00:36:53;;;;;;;32.88;19.67;;;;;;;0.40;100.00;96858.53;1020215;29;20032;-73
2020/12/21 00:37:24;;;;;;;32.60;19.60;;;;;;;0.43;100.00;96860.09;1028084;28;20027;-72
2020/12/21 00:37:55;;;;;;;30.05;19.23;;;;;;;0.44;100.00;96853.97;1024208;29;20499;-72
2020/12/21 00:38:26;;;;;;;32.75;19.70;;;;;;;0.43;100.00;96854.88;1020119;29;20118;-72
2020/12/21 00:38:57;;;;;;;34.85;20.23;;;;;;;0.37;100.00;96856.09;1020303;29;20050;-72
2020/12/21 00:39:28;;;;;;;33.65;20.17;;;;;;;0.34;100.00;96851.88;1028102;28;20031;-72
2020/12/21 00:39:58;;;;;;;30.75;18.20;;;;;;;0.36;100.00;96859.63;1024211;29;20034;-72
2020/12/21 00:40:29;;;;;;;31.33;19.13;;;;;;;0.39;100.00;96856.84;1032108;28;20053;-72
2020/12/21 00:41:08;;;;;;;29.40;17.50;;;;;;;0.39;100.00;96843.78;1036134;28;20025;-72
2020/12/21 00:41:39;;;;;;;32.38;18.35;;;;;;;0.41;100.00;96852.34;1024212;29;20451;-72
2020/12/21 00:42:12;;;;;;;30.70;18.45;;;;;;;0.38;100.00;96857.75;1028054;28;20098;-72
2020/12/21 00:42:45;;;;;;;31.40;18.88;;;;;;;0.28;100.00;96840.94;1032079;28;20022;-72
2020/12/21 00:43:15;;;;;;;30.50;19.65;;;;;;;0.40;100.00;96857.66;1024203;29;20102;-73
2020/12/21 00:43:48;;;;;;;31.92;19.33;;;;;;;0.36;100.00;96850.00;1024087;29;20170;-72
2020/12/21 00:44:19;;;;;;;35.55;20.08;;;;;;;0.39;100.00;96856.84;1020180;29;20129;-72
2020/12/21 00:44:50;;;;;;;31.90;19.65;;;;;;;0.39;100.00;96851.59;1023949;29;20050;-73
2020/12/21 00:45:21;;;;;;;32.25;18.75;;;;;;;0.39;100.00;96859.44;1028007;28;20022;-72
2020/12/21 00:45:52;;;;;;;32.75;19.70;;;;;;;0.47;100.00;96864.19;1028025;28;20514;-73
2020/12/21 00:46:27;;;;;;;30.92;19.38;;;;;;;0.42;100.00;96854.03;1028120;28;20023;-73
2020/12/21 00:46:57;;;;;;;31.55;19.60;;;;;;;0.40;100.00;96842.84;1024023;29;20451;-73
2020/12/21 00:47:32;;;;;;;33.22;19.83;;;;;;;0.48;100.00;96858.88;1036073;28;20124;-73
2020/12/21 00:48:03;;;;;;;32.38;20.42;;;;;;;0.45;100.00;96853.84;1028121;28;20022;-73
2020/12/21 00:48:34;;;;;;;33.08;20.10;;;;;;;0.48;100.00;96852.84;1028080;28;20022;-73
2020/12/21 00:49:05;;;;;;;33.40;20.10;;;;;;;0.53;100.00;96862.06;1027901;28;20023;-72
2020/12/21 00:49:36;;;;;;;30.67;19.23;;;;;;;0.45;100.00;96859.06;1028096;28;20027;-72
2020/12/21 00:50:06;;;;;;;32.00;19.13;;;;;;;0.44;100.00;96857.41;1024144;29;20042;-73
2020/12/21 00:50:37;;;;;;;33.83;20.10;;;;;;;0.48;100.00;96866.72;1024823;29;20058;-73
2020/12/21 00:51:08;;;;;;;31.73;19.95;;;;;;;0.51;100.00;96863.94;1024257;29;20082;-72
2020/12/21 00:51:39;;;;;;;32.35;19.50;;;;;;;0.46;100.00;96868.59;1024581;29;20030;-72
2020/12/21 00:52:10;;;;;;;30.40;18.73;;;;;;;0.43;100.00;96865.31;1027986;28;20133;-72
2020/12/21 00:52:40;;;;;;;32.28;19.98;;;;;;;0.51;100.00;96861.31;1028022;28;20022;-72
2020/12/21 00:53:11;;;;;;;28.80;18.95;;;;;;;0.61;100.00;96869.47;1027952;28;20023;-72
2020/12/21 00:53:43;;;;;;;29.38;18.63;;;;;;;0.49;100.00;96855.34;1027995;28;20503;-72
2020/12/21 00:54:14;;;;;;;29.83;18.00;;;;;;;0.58;100.00;96868.81;1024009;29;20049;-72
2020/12/21 00:54:45;;;;;;;32.00;18.85;;;;;;;0.54;100.00;96866.38;1020093;29;20015;-72
2020/12/21 00:55:15;;;;;;;29.02;18.95;;;;;;;0.49;100.00;96867.59;1023954;29;20034;-72
2020/12/21 00:55:46;;;;;;;29.55;18.67;;;;;;;0.51;100.00;96868.34;1020100;29;20083;-72
2020/12/21 00:56:18;;;;;;;28.40;18.38;;;;;;;0.49;100.00;96865.81;1027973;28;20029;-72
2020/12/21 00:56:48;;;;;;;30.02;18.77;;;;;;;0.56;100.00;96869.75;1028016;28;20019;-72
2020/12/21 00:57:19;;;;;;;31.00;19.10;;;;;;;0.65;100.00;96867.50;1023797;29;20031;-72
2020/12/21 00:57:50;;;;;;;30.42;18.25;;;;;;;0.55;100.00;96865.44;1028114;28;20022;-72
2020/12/21 00:58:21;;;;;;;33.75;18.98;;;;;;;0.50;100.00;96867.47;1028092;28;20022;-72
2020/12/21 00:58:52;;;;;;;30.23;18.92;;;;;;;0.52;100.00;96865.63;1024061;28;20070;-72
2020/12/21 00:59:23;;;;;;;29.33;18.00;;;;;;;0.57;100.00;96867.97;1027920;28;20118;-72
2020/12/21 00:59:54;;;;;;;30.80;18.83;;;;;;;0.51;100.00;96855.28;1023975;29;20614;-72
2020/12/21 01:00:25;;;;;;;30.05;18.42;;;;;;;0.67;100.00;96868.25;1024079;29;20019;-72
2020/12/21 01:01:00;;;;;;;29.45;18.27;;;;;;;0.67;100.00;96856.03;1023996;29;20301;-72
2020/12/21 01:01:31;;;;;;;32.53;19.75;;;;;;;0.68;100.00;96865.56;1032068;28;20406;-72
2020/12/21 01:02:05;;;;;;;32.75;20.00;;;;;;;0.68;100.00;96865.56;1027841;28;20023;-72
2020/12/21 01:02:38;;;;;;;30.25;19.52;;;;;;;0.66;100.00;96867.44;1019697;29;20114;-72
2020/12/21 01:03:08;;;;;;;32.13;19.88;;;;;;;0.74;100.00;96866.94;1023969;28;20154;-72
2020/12/21 01:03:39;;;;;;;31.95;19.60;;;;;;;0.75;100.00;96871.25;1020034;28;20028;-72
2020/12/21 01:04:10;;;;;;;31.02;19.42;;;;;;;0.67;100.00;96871.72;1016160;29;20059;-72
2020/12/21 01:04:41;;;;;;;31.73;20.38;;;;;;;0.75;100.00;96871.25;1024053;28;20454;-73
2020/12/21 01:05:12;;;;;;;32.05;20.15;;;;;;;0.69;100.00;96874.22;1020046;28;20337;-72
2020/12/21 01:05:42;;;;;;;31.85;19.80;;;;;;;0.70;100.00;96870.69;1027787;28;20026;-73
2020/12/21 01:06:13;;;;;;;31.25;19.40;;;;;;;0.64;100.00;96871.03;1023999;28;20581;-73
2020/12/21 01:06:44;;;;;;;32.22;19.48;;;;;;;0.65;100.00;96875.34;1024121;29;20035;-72
2020/12/21 01:07:15;;;;;;;30.90;18.90;;;;;;;0.67;100.00;96874.31;1020038;29;20119;-72
2020/12/21 01:07:46;;;;;;;30.55;18.95;;;;;;;0.56;100.00;96872.34;1024045;29;20025;-72
2020/12/21 01:08:17;;;;;;;33.30;20.27;;;;;;;0.59;100.00;96878.31;1016053;29;20416;-72
2020/12/21 01:08:48;;;;;;;30.23;19.60;;;;;;;0.57;100.00;96873.19;1020065;29;20110;-72
2020/12/21 01:09:18;;;;;;;33.63;20.73;;;;;;;0.58;100.00;96879.28;1016079;29;20433;-72
2020/12/21 01:09:49;;;;;;;32.55;20.55;;;;;;;0.49;100.00;96864.97;1020021;29;20027;-72
2020/12/21 01:10:20;;;;;;;31.00;18.92;;;;;;;0.58;100.00;96864.41;1019975;29;20388;-72
2020/12/21 01:10:51;;;;;;;32.72;19.77;;;;;;;0.63;100.00;96878.06;1020013;29;20030;-72
2020/12/21 01:11:21;;;;;;;32.35;18.80;;;;;;;0.59;100.00;96876.53;1023959;28;20030;-72
2020/12/21 01:11:53;;;;;;;31.42;20.20;;;;;;;0.58;100.00;96871.44;1027965;28;20506;-72
2020/12/21 01:12:24;;;;;;;33.63;20.27;;;;;;;0.65;100.00;96883.19;1023999;29;20059;-72
2020/12/21 01:12:55;;;;;;;31.02;19.98;;;;;;;0.66;100.00;96877.03;1027825;28;20033;-72
2020/12/21 01:13:25;;;;;;;31.75;19.98;;;;;;;0.74;100.00;96880.03;1028026;28;20113;-72
2020/12/21 01:13:57;;;;;;;31.02;19.38;;;;;;;0.71;100.00;96880.19;1027849;28;20030;-72
2020/12/21 01:14:28;;;;;;;32.15;19.30;;;;;;;0.68;100.00;96881.25;1027867;28;20027;-72
2020/12/21 01:14:59;;;;;;;34.42;20.05;;;;;;;0.65;100.00;96881.41;1024196;29;20019;-72
2020/12/21 01:15:30;;;;;;;31.85;19.38;;;;;;;0.61;100.00;96884.28;1019987;29;20660;-72
2020/12/21 01:16:00;;;;;;;32.00;20.10;;;;;;;0.63;100.00;96877.19;1019980;29;20028;-72
2020/12/21 01:16:32;;;;;;;30.98;19.70;;;;;;;0.68;100.00;96881.25;1031921;28;20030;-72
2020/12/21 01:17:02;;;;;;;34.60;19.73;;;;;;;0.68;100.00;96880.38;1020037;29;20424;-72
2020/12/21 01:17:33;;;;;;;30.35;19.55;;;;;;;0.71;100.00;96872.34;1023910;29;20027;-72
2020/12/21 01:18:04;;;;;;;33.70;18.60;;;;;;;0.70;100.00;96873.31;1019938;29;20079;-72
2020/12/21 01:18:35;;;;;;;29.25;18.75;;;;;;;0.68;100.00;96867.31;1023998;29;20023;-72
2020/12/21 01:19:11;;;;;;;32.72;20.10;;;;;;;0.74;100.00;96880.03;1027995;28;20023;-72
2020/12/21 01:19:42;;;;;;;30.63;18.77;;;;;;;0.73;100.00;96873.09;1019968;29;20023;-73
2020/12/21 01:20:13;;;;;;;30.73;19.73;;;;;;;0.77;100.00;96863.31;1023843;29;20479;-72
2020/12/21 01:20:44;;;;;;;30.42;19.50;;;;;;;0.72;100.00;96867.03;1027575;28;20027;-72
2020/12/21 01:21:26;;;;;;;29.45;18.48;;;;;;;0.78;100.00;96870.22;1020019;29;20031;-73
2020/12/21 01:21:57;;;;;;;28.10;17.77;;;;;;;0.85;100.00;96868.91;1027965;28;20018;-72
2020/12/21 01:22:28;;;;;;;30.33;18.77;;;;;;;0.87;100.00;96867.03;1023822;28;20030;-72
2020/12/21 01:22:58;;;;;;;28.63;18.02;;;;;;;0.85;100.00;96876.75;1020029;29;20020;-72
2020/12/21 01:23:29;;;;;;;30.08;18.10;;;;;;;0.80;100.00;96876.19;1023973;28;20080;-72
2020/12/21 01:24:00;;;;;;;30.42;18.42;;;;;;;0.79;100.00;96872.75;1019968;29;20022;-72
2020/12/21 01:24:31;;;;;;;30.65;19.17;;;;;;;0.77;100.00;96874.63;1023817;29;20015;-72
2020/12/21 01:25:01;;;;;;;29.63;18.92;;;;;;;0.84;100.00;96875.94;1016070;29;20020;-73
2020/12/21 01:25:32;;;;;;;30.48;19.10;;;;;;;0.78;100.00;96872.84;1023994;29;20027;-72
2020/12/21 01:26:03;;;;;;;30.73;19.35;;;;;;;0.77;100.00;96874.63;1027952;28;20019;-72
2020/12/21 01:26:34;;;;;;;26.77;17.98;;;;;;;0.82;100.00;96872.56;1031807;28;20018;-73
2020/12/21 01:27:05;;;;;;;29.85;19.63;;;;;;;0.84;100.00;96875.09;1027895;28;20150;-72
2020/12/21 01:27:36;;;;;;;30.00;19.02;;;;;;;0.88;100.00;96874.78;1027947;28;20031;-72
2020/12/21 01:28:06;;;;;;;27.90;18.10;;;;;;;0.85;100.00;96877.59;1027945;28;20026;-72
2020/12/21 01:28:37;;;;;;;30.65;19.20;;;;;;;0.83;100.00;96879.47;1023868;29;20030;-72
2020/12/21 01:29:08;;;;;;;31.05;19.17;;;;;;;0.76;100.00;96878.16;1028051;28;20015;-72
2020/12/21 01:29:39;;;;;;;28.25;18.45;;;;;;;0.74;100.00;96882.63;1016148;29;20020;-73
2020/12/21 01:30:10;;;;;;;30.02;18.60;;;;;;;0.83;100.00;96882.06;1027833;28;20019;-72
2020/12/21 01:30:40;;;;;;;30.52;19.77;;;;;;;0.83;100.00;96873.41;1023918;29;20027;-72
2020/12/21 01:31:11;;;;;;;29.77;18.70;;;;;;;0.90;100.00;96886.00;1023925;29;20023;-72
2020/12/21 01:31:42;;;;;;;28.27;18.27;;;;;;;0.90;100.00;96890.41;1020009;29;20048;-72
2020/12/21 01:32:13;;;;;;;32.67;18.85;;;;;;;0.81;100.00;96878.72;1023888;29;20039;-72
2020/12/21 01:32:43;;;;;;;31.25;19.42;;;;;;;0.73;100.00;96884.41;1020049;29;20107;-72
2020/12/21 01:33:14;;;;;;;29.10;18.77;;;;;;;0.74;100.00;96883.47;1019887;29;20106;-73
2020/12/21 01:33:46;;;;;;;30.35;18.35;;;;;;;0.71;100.00;96888.88;1020047;28;20590;-72
2020/12/21 01:34:18;;;;;;;32.63;19.80;;;;;;;0.69;100.00;96884.69;1016038;29;20024;-72
2020/12/21 01:34:49;;;;;;;34.30;20.98;;;;;;;0.69;100.00;96880.28;1023772;29;20467;-72
2020/12/21 01:35:19;;;;;;;33.08;20.88;;;;;;;0.76;100.00;96880.78;1027805;28;20070;-72
2020/12/21 01:35:51;;;;;;;30.85;19.25;;;;;;;0.79;100.00;96880.59;1023976;29;20403;-72
2020/12/21 01:36:22;;;;;;;29.23;18.63;;;;;;;0.80;100.00;96878.81;1023887;29;20130;-73
2020/12/21 01:36:52;;;;;;;32.58;20.25;;;;;;;0.79;100.00;96872.75;1019893;29;20027;-73
2020/12/21 01:37:23;;;;;;;31.67;19.50;;;;;;;0.81;100.00;96859.59;1019862;29;20032;-72
2020/12/21 01:37:54;;;;;;;32.13;19.23;;;;;;;0.81;100.00;96870.88;1023966;28;20027;-72
2020/12/21 01:38:25;;;;;;;31.13;19.55;;;;;;;0.83;100.00;96865.56;1019926;29;20027;-72
2020/12/21 01:38:55;;;;;;;32.28;19.10;;;;;;;0.82;100.00;96869.97;1023759;29;20018;-72
2020/12/21 01:39:26;;;;;;;29.50;19.30;;;;;;;0.79;100.00;96871.91;1023829;29;20542;-73
2020/12/21 01:39:57;;;;;;;30.02;18.88;;;;;;;0.83;100.00;96876.84;1019953;29;20028;-72
2020/12/21 01:40:28;;;;;;;31.25;19.55;;;;;;;0.90;100.00;96875.53;1019972;29;20066;-72
2020/12/21 01:40:58;;;;;;;29.55;19.50;;;;;;;0.79;100.00;96880.59;1027713;28;20019;-72
2020/12/21 01:41:29;;;;;;;30.95;19.77;;;;;;;0.89;100.00;96883.50;1027870;28;20019;-72
2020/12/21 01:42:00;;;;;;;32.08;19.55;;;;;;;0.89;100.00;96884.34;1023931;29;20126;-72
2020/12/21 01:42:31;;;;;;;30.00;18.92;;;;;;;0.95;100.00;96883.13;1027823;28;20410;-73
2020/12/21 01:43:02;;;;;;;31.77;19.70;;;;;;;1.01;100.00;96876.66;1019962;28;20388;-72
2020/12/21 01:43:32;;;;;;;30.58;19.15;;;;;;;0.98;100.00;96882.94;1019809;29;20090;-72
2020/12/21 01:44:03;;;;;;;31.30;19.35;;;;;;;0.99;100.00;96886.38;1019883;29;20317;-72
2020/12/21 01:44:34;;;;;;;30.58;19.33;;;;;;;0.91;100.00;96892.09;1023985;28;20019;-72
2020/12/21 01:45:06;;;;;;;28.73;18.25;;;;;;;0.94;100.00;96879.66;1023851;29;20029;-73
2020/12/21 01:45:37;;;;;;;33.08;19.38;;;;;;;0.89;100.00;96886.13;1027737;28;20026;-73
2020/12/21 01:46:10;;;;;;;32.58;19.67;;;;;;;0.99;100.00;96883.75;1027825;28;20553;-73
2020/12/21 01:46:41;;;;;;;30.05;19.13;;;;;;;0.90;100.00;96872.09;1023938;29;20019;-72
2020/12/21 01:47:12;;;;;;;32.47;20.15;;;;;;;0.96;100.00;96883.94;1023784;29;20115;-73
2020/12/21 01:47:43;;;;;;;36.70;21.05;;;;;;;0.90;100.00;96886.00;1023847;29;20511;-73
2020/12/21 01:48:14;;;;;;;37.72;22.73;;;;;;;0.89;100.00;96881.72;1016129;29;20079;-72
2020/12/21 01:48:45;;;;;;;36.45;20.88;;;;;;;0.93;100.00;96885.81;1027952;28;20419;-73
2020/12/21 01:49:17;;;;;;;36.72;20.85;;;;;;;0.91;100.00;96892.09;1023793;29;20027;-72
2020/12/21 01:49:48;;;;;;;41.67;23.33;;;;;;;0.92;100.00;96886.78;1020009;29;20416;-73
2020/12/21 01:50:19;;;;;;;37.42;22.45;;;;;;;0.90;100.00;96870.31;1019899;29;20027;-73
2020/12/21 01:50:49;;;;;;;35.55;20.83;;;;;;;0.95;100.00;96875.28;1019967;29;20488;-72
2020/12/21 01:51:22;;;;;;;38.50;22.55;;;;;;;0.98;100.00;96882.09;1019850;29;20170;-72
2020/12/21 01:51:53;;;;;;;32.50;20.55;;;;;;;0.99;100.00;96875.91;1019879;29;20024;-72
2020/12/21 01:52:24;;;;;;;36.53;21.23;;;;;;;0.99;100.00;96879.38;1019844;29;20019;-72
2020/12/21 01:52:54;;;;;;;36.05;21.17;;;;;;;0.92;100.00;96875.44;1027872;28;20030;-73
2020/12/21 01:53:25;;;;;;;32.95;20.75;;;;;;;0.88;100.00;96885.25;1021192;29;20030;-71
2020/12/21 01:53:56;;;;;;;34.88;20.98;;;;;;;0.80;100.00;96882.28;1021799;29;20022;-71
2020/12/21 01:54:27;;;;;;;41.13;23.52;;;;;;;0.77;100.00;96890.31;1020553;29;20043;-73
2020/12/21 01:54:58;;;;;;;41.63;25.05;;;;;;;0.81;100.00;96891.78;1019926;29;20114;-72
2020/12/21 01:55:29;;;;;;;45.95;23.60;;;;;;;0.71;100.00;96881.03;1023822;29;20074;-72
2020/12/21 01:56:00;;;;;;;47.78;24.90;;;;;;;0.68;100.00;96883.84;1023737;29;20015;-72
2020/12/21 01:56:30;;;;;;;41.38;23.88;;;;;;;0.70;100.00;96892.44;1023911;29;20046;-73
2020/12/21 01:57:02;;;;;;;42.17;24.42;;;;;;;0.63;100.00;96891.13;1023819;29;20023;-72
2020/12/21 01:57:34;;;;;;;40.45;22.55;;;;;;;0.62;100.00;96888.59;1023700;28;20054;-72
2020/12/21 01:58:05;;;;;;;46.60;24.33;;;;;;;0.69;100.00;96888.13;1019762;29;20070;-72
2020/12/21 01:58:36;;;;;;;49.00;25.35;;;;;;;0.63;100.00;96879.81;1023988;29;20055;-73
2020/12/21 01:59:06;;;;;;;43.13;24.15;;;;;;;0.64;100.00;96877.09;1027834;28;20031;-73
2020/12/21 01:59:37;;;;;;;43.85;24.52;;;;;;;0.74;100.00;96893.09;1027817;28;20031;-73
2020/12/21 02:00:08;;;;;;;44.88;23.77;;;;;;;0.74;100.00;96890.47;1023734;28;20023;-72
2020/12/21 02:00:38;;;;;;;42.55;23.80;;;;;;;0.72;100.00;96889.75;1023946;29;20498;-72
2020/12/21 02:01:11;;;;;;;39.92;22.95;;;;;;;0.77;100.00;96889.44;1027844;28;20022;-72
2020/12/21 02:01:42;;;;;;;34.67;21.67;;;;;;;0.80;100.00;96890.13;1027758;28;20094;-73
2020/12/21 02:02:13;;;;;;;44.03;24.27;;;;;;;0.81;100.00;96883.94;1023586;28;20122;-73
2020/12/21 02:02:44;;;;;;;43.05;22.92;;;;;;;0.78;100.00;96891.97;1026745;28;20121;-72
2020/12/21 02:03:15;;;;;;;41.63;23.10;;;;;;;0.72;100.00;96881.91;1027728;28;20039;-73
2020/12/21 02:03:46;;;;;;;44.05;23.50;;;;;;;0.74;100.00;96890.47;1027864;28;20114;-73
2020/12/21 02:04:17;;;;;;;44.10;23.77;;;;;;;0.53;100.00;96864.69;1019744;29;20027;-72
2020/12/21 02:04:48;;;;;;;40.47;23.45;;;;;;;0.74;100.00;96887.88;1027840;28;20023;-72
2020/12/21 02:05:19;;;;;;;33.35;21.25;;;;;;;0.85;100.00;96889.84;1023758;29;20019;-72
2020/12/21 02:05:49;;;;;;;36.15;21.08;;;;;;;0.89;100.00;96892.19;1023745;28;20031;-73
2020/12/21 02:06:20;;;;;;;33.42;21.25;;;;;;;0.97;100.00;96883.03;1027777;28;20038;-73
2020/12/21 02:06:51;;;;;;;37.30;21.63;;;;;;;1.00;100.00;96890.69;1019849;29;20385;-73
2020/12/21 02:07:22;;;;;;;33.40;21.55;;;;;;;1.02;100.00;96888.81;1023883;29;20549;-72
2020/12/21 02:07:53;;;;;;;32.65;20.70;;;;;;;0.91;100.00;96858.94;1019714;29;20024;-73
2020/12/21 02:08:24;;;;;;;29.80;19.98;;;;;;;1.08;100.00;96883.19;1019790;29;20039;-73
2020/12/21 02:08:54;;;;;;;31.73;20.02;;;;;;;1.05;100.00;96888.63;1027795;28;20061;-73
2020/12/21 02:09:25;;;;;;;30.95;19.90;;;;;;;1.07;100.00;96882.38;1023682;29;20026;-73
2020/12/21 02:09:56;;;;;;;33.25;19.25;;;;;;;1.07;100.00;96881.53;1019806;29;20130;-73
2020/12/21 02:10:27;;;;;;;30.42;18.48;;;;;;;1.02;100.00;96886.19;1027659;28;20023;-73
2020/12/21 02:10:58;;;;;;;32.35;18.60;;;;;;;0.90;100.00;96887.78;1023785;28;20078;-72
2020/12/21 02:11:29;;;;;;;31.80;19.67;;;;;;;0.90;100.00;96880.78;1023783;29;20030;-72
2020/12/21 02:12:00;;;;;;;32.72;20.10;;;;;;;0.89;100.00;96884.34;1019741;29;20051;-73
2020/12/21 02:12:31;;;;;;;32.53;20.55;;;;;;;0.87;100.00;96887.97;1019741;28;20028;-73
2020/12/21 02:13:01;;;;;;;33.40;20.77;;;;;;;0.87;100.00;96886.22;1019860;29;20038;-73
2020/12/21 02:13:32;;;;;;;35.05;20.98;;;;;;;0.90;100.00;96883.38;1019858;29;20511;-73
2020/12/21 02:14:03;;;;;;;33.63;21.15;;;;;;;0.91;100.00;96882.47;1027718;28;20340;-73
2020/12/21 02:14:34;;;;;;;34.95;20.48;;;;;;;0.84;100.00;96862.03;1019784;29;20034;-73
2020/12/21 02:15:04;;;;;;;35.15;20.60;;;;;;;0.93;100.00;96879.75;1023906;29;20023;-73
2020/12/21 02:15:35;;;;;;;31.75;20.20;;;;;;;0.90;100.00;96885.16;1023848;29;20118;-73
2020/12/21 02:16:07;;;;;;;34.50;21.67;;;;;;;0.85;100.00;96885.44;1023867;29;20113;-73
2020/12/21 02:16:38;;;;;;;34.95;21.17;;;;;;;0.87;100.00;96869.66;1023792;29;20030;-73
2020/12/21 02:17:09;;;;;;;36.13;21.40;;;;;;;0.86;100.00;96878.44;1027772;28;20019;-73
2020/12/21 02:17:40;;;;;;;35.45;21.20;;;;;;;0.91;100.00;96872.00;1027637;28;20419;-73
2020/12/21 02:18:10;;;;;;;33.65;20.17;;;;;;;0.79;100.00;96872.75;1023677;29;20031;-73
2020/12/21 02:18:41;;;;;;;36.30;21.98;;;;;;;0.72;100.00;96856.59;1019818;29;20034;-73
2020/12/21 02:19:13;;;;;;;37.85;22.33;;;;;;;0.95;100.00;96883.13;1027878;28;20031;-73
2020/12/21 02:19:43;;;;;;;35.28;21.52;;;;;;;1.01;100.00;96877.53;1027775;28;20386;-73
2020/12/21 02:20:15;;;;;;;36.60;21.38;;;;;;;1.03;100.00;96880.03;1019849;29;20028;-73
2020/12/21 02:20:46;;;;;;;33.88;20.83;;;;;;;0.96;100.00;96871.72;1023821;29;20510;-73
2020/12/21 02:21:17;;;;;;;36.25;21.65;;;;;;;1.02;100.00;96884.41;1015783;29;20024;-73
2020/12/21 02:21:48;;;;;;;38.33;21.95;;;;;;;1.01;100.00;96882.75;1031706;28;20030;-73
2020/12/21 02:22:19;;;;;;;38.13;20.95;;;;;;;0.98;100.00;96882.09;1031830;28;20026;-73
2020/12/21 02:22:50;;;;;;;37.85;22.42;;;;;;;1.02;100.00;96883.59;1023655;29;20027;-73
2020/12/21 02:23:21;;;;;;;36.72;22.38;;;;;;;1.08;100.00;96877.97;1027781;28;20026;-73
2020/12/21 02:23:52;;;;;;;32.33;20.50;;;;;;;1.14;100.00;96882.84;1027572;28;20042;-73
2020/12/21 02:24:23;;;;;;;30.73;19.45;;;;;;;1.12;100.00;96879.47;1015925;29;20024;-72
2020/12/21 02:24:54;;;;;;;34.65;21.08;;;;;;;1.16;100.00;96880.97;1019676;29;20106;-73
2020/12/21 02:25:25;;;;;;;34.25;21.00;;;;;;;1.04;100.00;96871.25;1023787;29;20431;-73